createdAt,value
2022-11-08T00:00:42.466Z,22
2022-11-08T00:02:42.789Z,23
2022-11-08T00:04:42.667Z,22
2022-11-08T00:06:42.797Z,22
2022-11-08T00:08:42.886Z,22
2022-11-08T00:10:42.998Z,22
2022-11-08T00:12:43.123Z,22
2022-11-08T00:14:43.235Z,22
2022-11-08T00:16:43.348Z,22
2022-11-08T00:20:43.569Z,22
2022-11-08T00:22:43.714Z,22
2022-11-08T00:24:43.856Z,21
2022-11-08T00:26:43.910Z,22
2022-11-08T00:28:44.020Z,22
2022-11-08T00:30:44.115Z,21
2022-11-08T00:32:44.212Z,20
2022-11-08T00:34:44.327Z,20
2022-11-08T00:36:44.439Z,20
2022-11-08T00:40:44.662Z,20
2022-11-08T00:42:44.865Z,20
2022-11-08T00:44:44.881Z,19
2022-11-08T00:46:44.981Z,20
2022-11-08T00:48:45.086Z,20
2022-11-08T00:50:45.217Z,20
2022-11-08T00:52:45.301Z,19
2022-11-08T00:54:45.425Z,20
2022-11-08T00:56:45.527Z,19
2022-11-08T00:58:45.636Z,20
2022-11-08T01:00:45.765Z,20
2022-11-08T01:04:45.945Z,20
2022-11-08T01:06:46.061Z,19
2022-11-08T01:08:46.174Z,18
2022-11-08T01:10:46.267Z,19
2022-11-08T01:14:46.478Z,19
2022-11-08T01:16:46.588Z,19
2022-11-08T01:18:46.705Z,20
2022-11-08T01:20:46.801Z,19
2022-11-08T01:22:46.916Z,19
2022-11-08T01:24:47.015Z,19
2022-11-08T01:26:47.078Z,19
2022-11-08T01:30:47.375Z,19
2022-11-08T01:32:47.377Z,18
2022-11-08T01:34:47.474Z,19
2022-11-08T01:36:47.582Z,18
2022-11-08T01:38:47.696Z,19
2022-11-08T01:40:47.786Z,18
2022-11-08T01:42:47.884Z,18
2022-11-08T01:44:47.989Z,18
2022-11-08T01:46:48.047Z,18
2022-11-08T01:48:48.159Z,18
2022-11-08T01:50:48.305Z,18
2022-11-08T01:52:48.368Z,19
2022-11-08T01:56:48.561Z,18
2022-11-08T01:58:48.651Z,19
2022-11-08T02:00:48.804Z,18
2022-11-08T02:02:48.880Z,18
2022-11-08T02:04:48.953Z,18
2022-11-08T02:06:49.050Z,18
2022-11-08T02:12:49.362Z,18
2022-11-08T02:14:49.440Z,18
2022-11-08T02:16:49.538Z,18
2022-11-08T02:18:49.639Z,18
2022-11-08T02:20:49.743Z,18
2022-11-08T02:22:49.832Z,18
2022-11-08T02:24:49.927Z,18
2022-11-08T02:26:50.042Z,18
2022-11-08T02:28:50.128Z,18
2022-11-08T02:30:50.216Z,18
2022-11-08T02:32:50.311Z,17
2022-11-08T02:34:50.405Z,18
2022-11-08T02:36:50.496Z,18
2022-11-08T02:38:50.583Z,17
2022-11-08T02:42:50.786Z,17
2022-11-08T02:44:50.877Z,17
2022-11-08T02:46:50.964Z,16
2022-11-08T02:48:51.043Z,17
2022-11-08T02:50:51.123Z,17
2022-11-08T02:52:51.281Z,17
2022-11-08T02:54:51.292Z,18
2022-11-08T02:56:51.392Z,18
2022-11-08T02:58:51.486Z,17
2022-11-08T03:00:51.578Z,17
2022-11-08T03:02:51.677Z,18
2022-11-08T03:04:51.750Z,18
2022-11-08T03:06:51.792Z,17
2022-11-08T03:08:51.901Z,16
2022-11-08T03:10:51.988Z,16
2022-11-08T03:12:52.094Z,17
2022-11-08T03:14:52.173Z,17
2022-11-08T03:16:52.258Z,17
2022-11-08T03:18:52.363Z,17
2022-11-08T03:20:52.401Z,17
2022-11-08T03:22:52.511Z,17
2022-11-08T03:24:52.593Z,17
2022-11-08T03:28:52.760Z,17
2022-11-08T03:30:52.863Z,17
2022-11-08T03:32:52.932Z,16
2022-11-08T03:34:53.028Z,15
2022-11-08T03:36:53.104Z,16
2022-11-08T03:38:53.199Z,15
2022-11-08T03:40:53.305Z,16
2022-11-08T03:42:53.393Z,17
2022-11-08T03:45:23.540Z,16
2022-11-08T03:47:23.655Z,17
2022-11-08T03:49:23.759Z,16
2022-11-08T03:51:23.865Z,17
2022-11-08T03:53:23.978Z,17
2022-11-08T03:55:24.093Z,17
2022-11-08T03:57:24.212Z,17
2022-11-08T03:59:24.324Z,17
2022-11-08T04:01:24.575Z,17
2022-11-08T04:03:24.578Z,17
2022-11-08T04:05:24.681Z,17
2022-11-08T04:07:24.801Z,16
2022-11-08T04:09:24.931Z,15
2022-11-08T04:11:25.036Z,17
2022-11-08T04:13:25.153Z,18
2022-11-08T04:15:25.311Z,18
2022-11-08T04:17:25.390Z,17
2022-11-08T04:19:25.492Z,16
2022-11-08T04:21:25.607Z,18
2022-11-08T04:23:25.726Z,18
2022-11-08T04:25:25.837Z,17
2022-11-08T04:27:25.961Z,17
2022-11-08T04:29:26.079Z,16
2022-11-08T04:31:26.165Z,17
2022-11-08T04:33:26.283Z,17
2022-11-08T04:35:26.442Z,16
2022-11-08T04:37:26.508Z,16
2022-11-08T04:39:26.615Z,17
2022-11-08T04:41:26.721Z,17
2022-11-08T04:43:26.848Z,18
2022-11-08T04:45:26.941Z,18
2022-11-08T04:47:27.063Z,18
2022-11-08T04:49:27.169Z,18
2022-11-08T04:51:27.267Z,18
2022-11-08T04:53:27.368Z,18
2022-11-08T04:55:27.467Z,18
2022-11-08T04:57:27.582Z,18
2022-11-08T05:01:27.883Z,18
2022-11-08T05:03:27.888Z,18
2022-11-08T05:05:27.964Z,19
2022-11-08T05:07:28.081Z,20
2022-11-08T05:11:28.307Z,19
2022-11-08T05:13:28.407Z,19
2022-11-08T05:15:28.519Z,19
2022-11-08T05:17:28.623Z,19
2022-11-08T05:19:28.704Z,18
2022-11-08T05:21:28.815Z,19
2022-11-08T05:23:28.936Z,18
2022-11-08T05:25:29.051Z,18
2022-11-08T05:27:29.121Z,17
2022-11-08T05:29:29.237Z,17
2022-11-08T05:31:29.334Z,17
2022-11-08T05:33:29.444Z,18
2022-11-08T05:35:29.545Z,18
2022-11-08T05:37:29.712Z,18
2022-11-08T05:39:32.105Z,18
2022-11-08T05:41:29.856Z,19
2022-11-08T05:43:29.964Z,20
2022-11-08T05:45:30.053Z,19
2022-11-08T05:47:30.165Z,20
2022-11-08T05:49:30.264Z,20
2022-11-08T05:51:30.357Z,20
2022-11-08T05:53:30.477Z,18
2022-11-08T05:55:30.581Z,20
2022-11-08T05:57:30.730Z,18
2022-11-08T05:59:30.776Z,18
2022-11-08T06:01:30.901Z,20
2022-11-08T06:03:31.631Z,19
2022-11-08T06:05:31.063Z,19
2022-11-08T06:07:31.161Z,18
2022-11-08T06:09:31.266Z,19
2022-11-08T06:11:31.367Z,19
2022-11-08T06:13:31.816Z,19
2022-11-08T06:15:31.560Z,19
2022-11-08T06:17:31.689Z,19
2022-11-08T06:19:31.768Z,18
2022-11-08T06:21:31.855Z,19
2022-11-08T06:23:31.956Z,20
2022-11-08T06:25:32.060Z,20
2022-11-08T06:27:32.159Z,19
2022-11-08T06:31:32.351Z,19
2022-11-08T06:33:32.448Z,18
2022-11-08T06:35:32.549Z,18
2022-11-08T06:37:32.627Z,18
2022-11-08T06:39:32.728Z,19
2022-11-08T06:41:32.818Z,21
2022-11-08T06:43:32.929Z,21
2022-11-08T06:45:33.029Z,20
2022-11-08T06:47:33.128Z,19
2022-11-08T06:49:33.219Z,19
2022-11-08T06:51:33.317Z,20
2022-11-08T06:53:33.434Z,20
2022-11-08T06:55:33.523Z,20
2022-11-08T06:57:33.616Z,20
2022-11-08T06:59:33.771Z,21
2022-11-08T07:01:33.964Z,23
2022-11-08T07:03:33.894Z,21
2022-11-08T07:05:33.981Z,21
2022-11-08T07:07:34.079Z,21
2022-11-08T07:09:34.173Z,23
2022-11-08T07:11:34.286Z,23
2022-11-08T07:13:34.372Z,22
2022-11-08T07:15:34.474Z,22
2022-11-08T07:17:38.632Z,18
2022-11-08T07:19:34.705Z,21
2022-11-08T07:21:34.732Z,22
2022-11-08T07:23:34.842Z,21
2022-11-08T07:25:34.932Z,20
2022-11-08T07:27:35.025Z,20
2022-11-08T07:29:35.108Z,20
2022-11-08T07:31:35.214Z,21
2022-11-08T07:33:35.284Z,20
2022-11-08T07:35:35.377Z,19
2022-11-08T07:37:35.692Z,19
2022-11-08T07:39:35.571Z,20
2022-11-08T07:41:35.666Z,20
2022-11-08T07:43:35.765Z,21
2022-11-08T07:45:35.849Z,25
2022-11-08T07:47:35.958Z,24
2022-11-08T07:49:36.030Z,23
2022-11-08T07:51:36.117Z,22
2022-11-08T07:53:36.205Z,23
2022-11-08T07:55:36.298Z,22
2022-11-08T07:57:36.370Z,20
2022-11-08T08:01:36.583Z,20
2022-11-08T08:03:36.630Z,20
2022-11-08T08:05:36.736Z,21
2022-11-08T08:08:06.883Z,22
2022-11-08T08:10:06.998Z,24
2022-11-08T08:12:07.108Z,20
2022-11-08T08:14:07.241Z,20
2022-11-08T08:16:07.350Z,21
2022-11-08T08:18:07.460Z,19
2022-11-08T08:20:07.574Z,20
2022-11-08T08:22:07.699Z,20
2022-11-08T08:24:07.814Z,20
2022-11-08T08:26:07.924Z,20
2022-11-08T08:30:08.150Z,20
2022-11-08T08:32:08.267Z,20
2022-11-08T08:34:08.369Z,21
2022-11-08T08:36:08.488Z,21
2022-11-08T08:38:08.595Z,20
2022-11-08T08:40:08.673Z,19
2022-11-08T08:42:08.830Z,19
2022-11-08T08:44:08.904Z,20
2022-11-08T08:46:09.010Z,20
2022-11-08T08:48:09.134Z,20
2022-11-08T08:50:09.233Z,21
2022-11-08T08:52:09.353Z,21
2022-11-08T08:54:09.459Z,20
2022-11-08T08:56:09.577Z,21
2022-11-08T08:58:09.696Z,22
2022-11-08T09:02:09.904Z,22
2022-11-08T09:04:10.022Z,21
2022-11-08T09:06:10.120Z,19
2022-11-08T09:08:10.228Z,18
2022-11-08T09:10:10.343Z,19
2022-11-08T09:12:13.561Z,22
2022-11-08T09:14:10.559Z,23
2022-11-08T09:16:10.661Z,22
2022-11-08T09:18:10.912Z,22
2022-11-08T09:20:10.889Z,21
2022-11-08T09:22:11.080Z,20
2022-11-08T09:24:11.103Z,19
2022-11-08T09:26:11.212Z,19
2022-11-08T09:28:11.327Z,19
2022-11-08T09:30:11.434Z,18
2022-11-08T09:32:11.555Z,19
2022-11-08T09:34:11.629Z,19
2022-11-08T09:36:11.739Z,22
2022-11-08T09:40:11.984Z,20
2022-11-08T09:42:12.120Z,19
2022-11-08T09:44:12.201Z,20
2022-11-08T09:46:12.272Z,20
2022-11-08T09:48:12.361Z,20
2022-11-08T09:50:12.465Z,22
2022-11-08T09:52:12.556Z,22
2022-11-08T09:54:16.994Z,22
2022-11-08T09:56:12.756Z,22
2022-11-08T09:58:12.874Z,21
2022-11-08T10:00:12.957Z,20
2022-11-08T10:02:13.099Z,20
2022-11-08T10:04:13.155Z,19
2022-11-08T10:06:13.264Z,19
2022-11-08T10:08:13.367Z,19
2022-11-08T10:10:13.452Z,19
2022-11-08T10:12:13.560Z,19
2022-11-08T10:14:13.649Z,18
2022-11-08T10:16:13.745Z,19
2022-11-08T10:18:13.843Z,19
2022-11-08T10:20:13.942Z,18
2022-11-08T10:22:14.036Z,19
2022-11-08T10:24:14.137Z,18
2022-11-08T10:26:14.251Z,19
2022-11-08T10:28:14.309Z,19
2022-11-08T10:30:14.401Z,20
2022-11-08T10:32:14.492Z,21
2022-11-08T10:34:14.585Z,20
2022-11-08T10:36:14.691Z,18
2022-11-08T10:38:14.773Z,19
2022-11-08T10:40:14.867Z,18
2022-11-08T10:42:14.952Z,18
2022-11-08T10:44:15.046Z,17
2022-11-08T10:46:15.135Z,18
2022-11-08T10:50:15.337Z,18
2022-11-08T10:52:15.425Z,19
2022-11-08T10:54:15.537Z,20
2022-11-08T10:56:15.602Z,20
2022-11-08T10:58:16.024Z,19
2022-11-08T11:00:15.765Z,19
2022-11-08T11:02:15.882Z,19
2022-11-08T11:04:15.934Z,18
2022-11-08T11:06:16.023Z,17
2022-11-08T11:08:16.450Z,17
2022-11-08T11:10:16.184Z,17
2022-11-08T11:12:16.282Z,18
2022-11-08T11:14:21.663Z,16
2022-11-08T11:16:16.455Z,17
2022-11-08T11:18:16.831Z,16
2022-11-08T11:20:16.766Z,18
2022-11-08T11:22:16.745Z,18
2022-11-08T11:24:19.280Z,17
2022-11-08T11:26:16.903Z,17
2022-11-08T11:28:17.309Z,20
2022-11-08T11:30:17.214Z,19
2022-11-08T11:32:17.141Z,17
2022-11-08T11:34:17.237Z,17
2022-11-08T11:36:17.298Z,18
2022-11-08T11:38:17.693Z,16
2022-11-08T11:40:17.467Z,16
2022-11-08T11:42:43.857Z,17
2022-11-08T11:46:17.702Z,19
2022-11-08T11:48:18.204Z,21
2022-11-08T11:50:17.888Z,20
2022-11-08T11:52:48.036Z,20
2022-11-08T11:54:48.117Z,20
2022-11-08T11:56:48.237Z,20
2022-11-08T11:58:48.335Z,27
2022-11-08T12:00:48.446Z,29
2022-11-08T12:02:48.540Z,24
2022-11-08T12:04:48.624Z,20
2022-11-08T12:06:48.877Z,19
2022-11-08T12:08:48.863Z,18
2022-11-08T12:10:48.944Z,18
2022-11-08T12:12:49.082Z,18
2022-11-08T12:14:49.181Z,18
2022-11-08T12:18:49.895Z,18
2022-11-08T12:22:49.604Z,20
2022-11-08T12:24:49.694Z,21
2022-11-08T12:26:49.836Z,19
2022-11-08T12:28:49.923Z,19
2022-11-08T12:30:50.040Z,18
2022-11-08T12:32:50.116Z,18
2022-11-08T12:34:50.205Z,17
2022-11-08T12:36:50.338Z,18
2022-11-08T12:38:50.410Z,18
2022-11-08T12:40:50.515Z,19
2022-11-08T12:42:50.631Z,20
2022-11-08T12:44:50.736Z,19
2022-11-08T12:46:50.829Z,20
2022-11-08T12:48:50.945Z,21
2022-11-08T12:50:51.087Z,19
2022-11-08T12:52:51.105Z,19
2022-11-08T12:54:51.226Z,20
2022-11-08T12:56:51.322Z,18
2022-11-08T12:58:51.440Z,20
2022-11-08T13:00:51.640Z,19
2022-11-08T13:02:51.649Z,19
2022-11-08T13:04:51.749Z,20
2022-11-08T13:06:51.888Z,19
2022-11-08T13:08:51.954Z,18
2022-11-08T13:10:52.124Z,19
2022-11-08T13:12:52.183Z,19
2022-11-08T13:14:52.274Z,19
2022-11-08T13:18:52.463Z,18
2022-11-08T13:20:52.560Z,19
2022-11-08T13:22:52.677Z,17
2022-11-08T13:24:52.781Z,18
2022-11-08T13:26:57.159Z,17
2022-11-08T13:28:52.950Z,17
2022-11-08T13:30:53.062Z,18
2022-11-08T13:32:54.445Z,18
2022-11-08T13:34:53.267Z,19
2022-11-08T13:36:53.346Z,21
2022-11-08T13:38:53.444Z,23
2022-11-08T13:40:56.070Z,23
2022-11-08T13:42:53.618Z,20
2022-11-08T13:44:53.711Z,19
2022-11-08T13:46:53.810Z,20
2022-11-08T13:48:53.912Z,21
2022-11-08T13:50:53.991Z,19
2022-11-08T13:52:54.091Z,23
2022-11-08T13:54:54.181Z,21
2022-11-08T13:56:54.293Z,19
2022-11-08T13:58:54.405Z,20
2022-11-08T14:00:54.509Z,20
2022-11-08T14:02:54.596Z,21
2022-11-08T14:04:54.700Z,24
2022-11-08T14:06:54.848Z,26
2022-11-08T14:08:54.883Z,23
2022-11-08T14:10:54.947Z,21
2022-11-08T14:12:55.037Z,21
2022-11-08T14:14:55.107Z,21
2022-11-08T14:16:55.197Z,20
2022-11-08T14:18:55.295Z,20
2022-11-08T14:20:55.376Z,20
2022-11-08T14:22:55.473Z,22
2022-11-08T14:24:55.559Z,20
2022-11-08T14:26:55.645Z,21
2022-11-08T14:28:55.740Z,20
2022-11-08T14:30:55.835Z,20
2022-11-08T14:32:55.976Z,20
2022-11-08T14:34:56.016Z,19
2022-11-08T14:36:56.372Z,20
2022-11-08T14:40:56.277Z,18
2022-11-08T14:42:56.363Z,18
2022-11-08T14:44:56.459Z,17
2022-11-08T14:46:56.537Z,17
2022-11-08T14:48:56.634Z,18
2022-11-08T14:50:56.730Z,16
2022-11-08T14:52:56.930Z,16
2022-11-08T14:54:56.882Z,17
2022-11-08T14:56:56.979Z,16
2022-11-08T14:58:57.045Z,18
2022-11-08T15:00:57.198Z,19
2022-11-08T15:02:57.199Z,18
2022-11-08T15:05:27.349Z,19
2022-11-08T15:07:27.466Z,19
2022-11-08T15:09:27.557Z,21
2022-11-08T15:11:28.218Z,21
2022-11-08T15:13:27.835Z,26
2022-11-08T15:15:27.916Z,26
2022-11-08T15:17:28.032Z,30
2022-11-08T15:19:28.141Z,33
2022-11-08T15:21:28.251Z,40
2022-11-08T15:23:28.354Z,40
2022-11-08T15:25:28.478Z,41
2022-11-08T15:27:28.570Z,37
2022-11-08T15:29:28.669Z,40
2022-11-08T15:31:28.785Z,39
2022-11-08T15:33:28.884Z,39
2022-11-08T15:35:29.000Z,42
2022-11-08T15:37:29.112Z,52
2022-11-08T15:39:29.211Z,57
2022-11-08T15:41:29.316Z,47
2022-11-08T15:43:29.403Z,39
2022-11-08T15:45:29.515Z,38
2022-11-08T15:47:29.611Z,88
2022-11-08T15:49:29.710Z,119
2022-11-08T15:51:29.807Z,53
2022-11-08T15:53:29.916Z,71
2022-11-08T15:55:30.027Z,54
2022-11-08T15:57:30.143Z,58
2022-11-08T15:59:30.261Z,63
2022-11-08T16:01:30.409Z,71
2022-11-08T16:03:30.451Z,111
2022-11-08T16:05:30.559Z,60
2022-11-08T16:07:30.674Z,45
2022-11-08T16:09:30.797Z,48
2022-11-08T16:11:30.883Z,46
2022-11-08T16:13:30.997Z,48
2022-11-08T16:15:31.152Z,48
2022-11-08T16:17:31.209Z,48
2022-11-08T16:19:31.330Z,44
2022-11-08T16:21:31.410Z,47
2022-11-08T16:23:31.510Z,56
2022-11-08T16:25:31.634Z,56
2022-11-08T16:27:31.738Z,53
2022-11-08T16:29:31.809Z,45
2022-11-08T16:31:31.920Z,44
2022-11-08T16:33:32.028Z,43
2022-11-08T16:35:32.134Z,49
2022-11-08T16:37:32.223Z,47
2022-11-08T16:39:32.328Z,37
2022-11-08T16:41:32.433Z,36
2022-11-08T16:43:32.548Z,41
2022-11-08T16:47:32.748Z,53
2022-11-08T16:49:32.837Z,42
2022-11-08T16:51:32.906Z,45
2022-11-08T16:53:33.007Z,37
2022-11-08T16:55:33.317Z,35
2022-11-08T16:57:34.980Z,42
2022-11-08T16:59:33.304Z,36
2022-11-08T17:01:33.460Z,30
2022-11-08T17:03:33.517Z,29
2022-11-08T17:05:33.607Z,33
2022-11-08T17:07:33.717Z,37
2022-11-08T17:09:33.807Z,37
2022-11-08T17:11:33.911Z,37
2022-11-08T17:13:40.141Z,35
2022-11-08T17:15:34.105Z,36
2022-11-08T17:17:34.252Z,38
2022-11-08T17:19:34.293Z,39
2022-11-08T17:21:45.503Z,41
2022-11-08T17:23:34.474Z,42
2022-11-08T17:25:34.589Z,38
2022-11-08T17:27:34.647Z,66
2022-11-08T17:29:34.756Z,49
2022-11-08T17:31:34.859Z,67
2022-11-08T17:33:34.935Z,40
2022-11-08T17:35:38.576Z,40
2022-11-08T17:37:35.176Z,39
2022-11-08T17:39:35.217Z,44
2022-11-08T17:41:35.318Z,34
2022-11-08T17:43:35.415Z,33
2022-11-08T17:45:35.502Z,32
2022-11-08T17:47:35.598Z,31
2022-11-08T17:49:39.888Z,29
2022-11-08T17:51:35.771Z,33
2022-11-08T17:53:35.909Z,38
2022-11-08T17:55:35.975Z,36
2022-11-08T17:57:36.054Z,74
2022-11-08T17:59:36.159Z,95
2022-11-08T18:01:36.545Z,67
2022-11-08T18:03:36.365Z,43
2022-11-08T18:05:36.439Z,31
2022-11-08T18:07:36.524Z,32
2022-11-08T18:09:36.615Z,36
2022-11-08T18:11:36.705Z,43
2022-11-08T18:13:36.795Z,51
2022-11-08T18:17:36.946Z,39
2022-11-08T18:19:37.039Z,38
2022-11-08T18:23:37.232Z,51
2022-11-08T18:25:37.327Z,478
2022-11-08T18:27:37.424Z,365
2022-11-08T18:29:37.525Z,59
2022-11-08T18:31:37.617Z,41
2022-11-08T18:33:37.703Z,36
2022-11-08T18:35:37.796Z,36
2022-11-08T18:37:37.897Z,36
2022-11-08T18:39:37.983Z,33
2022-11-08T18:41:38.089Z,29
2022-11-08T18:43:38.136Z,28
2022-11-08T18:45:38.229Z,29
2022-11-08T18:47:38.333Z,27
2022-11-08T18:49:38.398Z,28
2022-11-08T18:51:38.502Z,30
2022-11-08T18:53:38.591Z,31
2022-11-08T18:55:38.670Z,33
2022-11-08T18:57:38.822Z,31
2022-11-08T18:59:38.869Z,35
2022-11-08T19:01:38.968Z,34
2022-11-08T19:03:39.034Z,33
2022-11-08T19:06:09.163Z,27
2022-11-08T19:08:09.286Z,30
2022-11-08T19:10:09.391Z,34
2022-11-08T19:12:09.509Z,35
2022-11-08T19:14:09.642Z,32
2022-11-08T19:16:09.759Z,30
2022-11-08T19:18:09.869Z,33
2022-11-08T19:20:09.980Z,31
2022-11-08T19:22:10.146Z,33
2022-11-08T19:24:10.199Z,32
2022-11-08T19:26:10.321Z,35
2022-11-08T19:28:10.398Z,34
2022-11-08T19:30:10.531Z,29
2022-11-08T19:32:10.638Z,28
2022-11-08T19:34:10.758Z,28
2022-11-08T19:36:10.872Z,24
2022-11-08T19:38:10.973Z,32
2022-11-08T19:40:11.085Z,33
2022-11-08T19:42:11.248Z,33
2022-11-08T19:44:11.317Z,38
2022-11-08T19:46:11.415Z,36
2022-11-08T19:48:11.545Z,36
2022-11-08T19:50:11.661Z,42
2022-11-08T19:52:11.781Z,39
2022-11-08T19:54:11.888Z,40
2022-11-08T19:56:11.991Z,42
2022-11-08T19:58:12.102Z,42
2022-11-08T20:00:12.227Z,45
2022-11-08T20:02:12.413Z,48
2022-11-08T20:04:12.434Z,51
2022-11-08T20:06:12.538Z,50
2022-11-08T20:08:12.653Z,49
2022-11-08T20:10:12.754Z,52
2022-11-08T20:12:12.868Z,59
2022-11-08T20:14:12.972Z,59
2022-11-08T20:16:13.082Z,59
2022-11-08T20:18:13.180Z,59
2022-11-08T20:20:13.290Z,58
2022-11-08T20:22:13.407Z,55
2022-11-08T20:24:13.537Z,65
2022-11-08T20:26:13.630Z,61
2022-11-08T20:28:13.744Z,57
2022-11-08T20:30:13.845Z,56
2022-11-08T20:32:13.963Z,54
2022-11-08T20:34:14.074Z,52
2022-11-08T20:36:14.194Z,55
2022-11-08T20:38:14.301Z,55
2022-11-08T20:40:14.392Z,47
2022-11-08T20:42:14.493Z,54
2022-11-08T20:44:14.618Z,49
2022-11-08T20:46:14.696Z,46
2022-11-08T20:48:14.909Z,48
2022-11-08T20:50:14.910Z,47
2022-11-08T20:52:15.025Z,48
2022-11-08T20:54:15.149Z,48
2022-11-08T20:56:15.243Z,55
2022-11-08T20:58:15.634Z,49
2022-11-08T21:00:17.805Z,49
2022-11-08T21:02:15.620Z,48
2022-11-08T21:04:15.733Z,47
2022-11-08T21:06:15.778Z,39
2022-11-08T21:08:58.024Z,42
2022-11-08T21:10:40.839Z,60
2022-11-08T21:12:16.090Z,54
2022-11-08T21:14:16.157Z,53
2022-11-08T21:16:28.849Z,45
2022-11-08T21:18:16.728Z,44
2022-11-08T21:20:16.447Z,41
2022-11-08T21:22:16.588Z,42
2022-11-08T21:24:16.669Z,40
2022-11-08T21:26:16.776Z,40
2022-11-08T21:28:17.149Z,38
2022-11-08T21:30:16.976Z,37
2022-11-08T21:32:17.086Z,36
2022-11-08T21:34:17.188Z,36
2022-11-08T21:36:17.398Z,36
2022-11-08T21:38:17.760Z,37
2022-11-08T21:40:17.494Z,47
2022-11-08T21:42:17.601Z,41
2022-11-08T21:44:17.696Z,42
2022-11-08T21:46:17.784Z,43
2022-11-08T21:48:18.247Z,40
2022-11-08T21:50:17.987Z,40
2022-11-08T21:52:18.080Z,35
2022-11-08T21:54:18.192Z,36
2022-11-08T21:56:18.290Z,35
2022-11-08T21:58:18.704Z,35
2022-11-08T22:00:18.472Z,31
2022-11-08T22:02:18.591Z,27
2022-11-08T22:04:18.698Z,28
2022-11-08T22:06:18.799Z,30
2022-11-08T22:08:19.162Z,33
2022-11-08T22:10:19.001Z,38
2022-11-08T22:12:19.090Z,39
2022-11-08T22:14:19.186Z,41
2022-11-08T22:16:19.288Z,42
2022-11-08T22:18:26.419Z,42
2022-11-08T22:20:19.479Z,39
2022-11-08T22:24:19.786Z,37
2022-11-08T22:26:19.841Z,33
2022-11-08T22:28:20.262Z,34
2022-11-08T22:30:19.981Z,32
2022-11-08T22:32:20.078Z,32
2022-11-08T22:34:20.195Z,31
2022-11-08T22:36:20.286Z,30
2022-11-08T22:38:20.756Z,31
2022-11-08T22:40:20.469Z,31
2022-11-08T22:44:20.678Z,32
2022-11-08T22:46:20.823Z,31
2022-11-08T22:48:21.070Z,34
2022-11-08T22:50:20.983Z,33
2022-11-08T22:52:21.084Z,29
2022-11-08T22:54:21.146Z,28
2022-11-08T22:56:21.262Z,25
2022-11-08T22:58:21.366Z,26
2022-11-08T23:00:21.435Z,26
2022-11-08T23:02:21.539Z,27
2022-11-08T23:04:21.635Z,27
2022-11-08T23:06:21.749Z,29
2022-11-08T23:08:21.840Z,29
2022-11-08T23:10:21.919Z,30
2022-11-08T23:12:22.027Z,32
2022-11-08T23:14:22.129Z,30
2022-11-08T23:16:22.218Z,32
2022-11-08T23:18:22.326Z,28
2022-11-08T23:20:22.422Z,28
2022-11-08T23:22:22.517Z,26
2022-11-08T23:24:22.627Z,24
2022-11-08T23:26:22.691Z,24
2022-11-08T23:28:22.792Z,25
2022-11-08T23:30:22.868Z,24
2022-11-08T23:32:22.957Z,26
2022-11-08T23:34:23.057Z,29
2022-11-08T23:36:23.152Z,32
2022-11-08T23:38:23.249Z,28
2022-11-08T23:40:23.348Z,26
2022-11-08T23:42:23.456Z,23
2022-11-08T23:44:23.547Z,23
2022-11-08T23:46:23.647Z,23
2022-11-08T23:48:23.790Z,21
2022-11-08T23:50:23.826Z,22
2022-11-08T23:52:23.919Z,23
2022-11-08T23:54:24.020Z,22
2022-11-08T23:56:24.123Z,22
2022-11-08T23:58:24.196Z,23
